createdAt,value
2023-03-23T15:57:54.993Z,1.93
2023-03-23T16:00:23.621Z,1.90
2023-03-23T16:02:56.980Z,1.70
2023-03-23T16:05:23.474Z,1.37
2023-03-23T16:07:50.394Z,1.50
2023-03-23T16:10:20.035Z,1.67
2023-03-23T16:12:46.793Z,1.60
2023-03-23T16:15:14.134Z,1.30
2023-03-23T16:17:40.920Z,1.37
2023-03-23T16:20:21.834Z,1.40
2023-03-23T16:22:48.958Z,1.30
2023-03-23T16:25:16.005Z,1.43
2023-03-23T16:27:43.329Z,1.30
2023-03-23T16:30:26.764Z,1.70
2023-03-23T16:32:55.417Z,1.67
2023-03-23T16:35:23.621Z,1.97
2023-03-23T16:38:08.142Z,2.00
2023-03-23T16:40:35.083Z,1.70
2023-03-23T16:43:01.489Z,1.80
2023-03-23T16:45:35.797Z,1.20
2023-03-23T16:48:02.400Z,1.37
2023-03-23T16:50:30.022Z,1.53
2023-03-23T16:52:56.839Z,1.27
2023-03-23T16:55:23.265Z,1.00
2023-03-23T16:57:49.681Z,1.00
2023-03-23T17:00:21.990Z,1.00
2023-03-23T17:02:51.900Z,0.73
2023-03-23T17:05:20.053Z,1.00
2023-03-23T17:07:46.909Z,1.10
2023-03-23T17:10:14.053Z,1.00
2023-03-23T17:12:40.904Z,1.20
2023-03-23T17:15:08.909Z,1.10
2023-03-23T17:17:35.674Z,1.30
2023-03-23T17:20:02.428Z,1.30
2023-03-23T17:22:29.009Z,1.30
2023-03-23T17:24:57.201Z,1.20
2023-03-23T17:27:23.623Z,1.20
2023-03-23T17:29:50.030Z,1.33
2023-03-23T17:32:17.166Z,1.40
2023-03-23T17:34:43.596Z,1.60
2023-03-23T17:37:10.193Z,1.70
2023-03-23T17:39:43.288Z,1.60
2023-03-23T17:42:10.390Z,1.20
2023-03-23T17:44:36.874Z,1.90
2023-03-23T17:47:03.427Z,2.03
2023-03-23T17:49:32.947Z,1.63
2023-03-23T17:52:00.250Z,1.90
2023-03-23T17:54:29.027Z,1.80
2023-03-23T17:56:57.812Z,1.73
2023-03-23T17:59:25.201Z,1.80
2023-03-23T18:01:52.676Z,2.30
2023-03-23T18:04:19.264Z,2.23
2023-03-23T18:06:46.367Z,1.90
2023-03-23T18:09:12.949Z,2.40
2023-03-23T18:11:39.415Z,1.97
2023-03-23T18:14:06.069Z,2.17
2023-03-23T18:16:32.551Z,1.63
2023-03-23T18:18:59.005Z,1.97
2023-03-23T18:21:26.974Z,2.23
2023-03-23T18:23:59.188Z,1.73
2023-03-23T18:26:26.568Z,1.70
2023-03-23T18:28:53.222Z,2.37
2023-03-23T18:31:20.820Z,2.03
2023-03-23T18:33:49.403Z,1.67
2023-03-23T18:36:18.547Z,2.43
2023-03-23T18:38:46.097Z,1.67
2023-03-23T18:41:13.960Z,1.70
2023-03-23T18:43:40.996Z,1.53
2023-03-23T18:46:08.009Z,1.73
2023-03-23T18:48:35.569Z,2.17
2023-03-23T18:51:02.573Z,1.90
2023-03-23T18:53:28.999Z,1.90
2023-03-23T18:56:07.759Z,1.93
2023-03-23T18:58:34.305Z,2.80
2023-03-23T19:01:07.019Z,3.23
2023-03-23T19:03:35.187Z,2.30
2023-03-23T19:06:02.197Z,2.20
2023-03-23T19:08:29.417Z,2.00
2023-03-23T19:11:01.030Z,2.00
2023-03-23T19:13:33.926Z,2.47
2023-03-23T19:16:00.760Z,1.97
2023-03-23T19:18:27.224Z,2.87
2023-03-23T19:21:13.454Z,2.70
2023-03-23T19:23:41.341Z,2.50
2023-03-23T19:26:07.844Z,2.97
2023-03-23T19:29:15.495Z,2.60
2023-03-23T19:31:24.710Z,2.57
2023-03-23T19:33:52.956Z,3.07
2023-03-23T19:36:23.504Z,2.80
2023-03-23T19:38:50.755Z,3.20
2023-03-23T19:41:19.075Z,3.43
2023-03-23T19:43:45.985Z,3.77
2023-03-23T19:46:12.827Z,3.90
2023-03-23T19:48:39.986Z,4.20
2023-03-23T19:51:07.601Z,4.70
2023-03-23T19:53:34.415Z,5.00
2023-03-23T19:56:02.931Z,5.40
2023-03-23T19:58:30.549Z,4.83
2023-03-23T20:00:57.140Z,4.73
2023-03-23T20:03:23.699Z,4.70
2023-03-23T20:05:50.467Z,4.60
2023-03-23T20:08:17.634Z,4.73
2023-03-23T20:10:44.090Z,5.60
2023-03-23T20:13:11.571Z,6.70
2023-03-23T20:15:38.235Z,5.27
2023-03-23T20:18:06.015Z,5.10
2023-03-23T20:20:36.146Z,5.07
2023-03-23T20:23:04.258Z,5.00
2023-03-23T20:25:31.402Z,5.30
2023-03-23T20:27:57.875Z,5.23
2023-03-23T20:30:24.422Z,5.57
2023-03-23T20:32:51.941Z,5.07
2023-03-23T20:35:18.753Z,5.30
2023-03-23T20:37:45.223Z,5.17
2023-03-23T20:40:13.997Z,5.00
2023-03-23T20:42:43.757Z,5.53
2023-03-23T20:45:11.971Z,6.03
2023-03-23T20:47:39.374Z,6.03
2023-03-23T20:50:07.430Z,5.80
2023-03-23T20:52:34.040Z,6.23
2023-03-23T20:55:00.890Z,6.33
2023-03-23T20:57:28.671Z,6.00
2023-03-23T20:59:55.966Z,6.50
2023-03-23T21:02:24.952Z,6.73
2023-03-23T21:04:52.721Z,7.50
2023-03-23T21:07:22.902Z,7.00
2023-03-23T21:09:49.599Z,6.80
2023-03-23T21:12:16.093Z,7.40
2023-03-23T21:14:44.796Z,7.50
2023-03-23T21:17:11.302Z,7.40
2023-03-23T21:19:37.931Z,8.00
2023-03-23T21:22:04.372Z,8.33
2023-03-23T21:24:31.906Z,8.03
2023-03-23T21:27:00.682Z,8.00
2023-03-23T21:29:27.368Z,9.07
2023-03-23T21:32:05.310Z,8.87
2023-03-23T21:34:35.959Z,7.80
2023-03-23T21:37:02.370Z,8.50
2023-03-23T21:39:28.902Z,8.63
2023-03-23T21:41:55.388Z,9.27
2023-03-23T21:44:22.104Z,8.27
2023-03-23T21:46:48.577Z,9.03
2023-03-23T21:49:15.111Z,8.60
2023-03-23T21:51:41.893Z,8.87
2023-03-23T21:54:09.985Z,7.67
2023-03-23T21:56:36.939Z,9.13
2023-03-23T21:59:04.603Z,8.40
2023-03-23T22:01:31.344Z,8.73
2023-03-23T22:03:58.200Z,8.97
2023-03-23T22:06:28.560Z,8.17
2023-03-23T22:08:55.386Z,8.37
2023-03-23T22:11:27.494Z,8.23
2023-03-23T22:13:55.535Z,8.00
2023-03-23T22:16:22.699Z,7.90
2023-03-23T22:18:51.182Z,7.73
2023-03-23T22:21:18.990Z,7.77
2023-03-23T22:23:46.091Z,7.50
2023-03-23T22:26:13.885Z,7.73
2023-03-23T22:28:41.100Z,7.37
2023-03-23T22:31:13.225Z,7.63
2023-03-23T22:33:39.948Z,6.40
2023-03-23T22:36:06.853Z,6.50
2023-03-23T22:38:37.747Z,6.60
2023-03-23T22:41:07.086Z,6.20
2023-03-23T22:43:37.561Z,5.70
2023-03-23T22:46:05.102Z,5.73
2023-03-23T22:48:31.842Z,5.47
2023-03-23T22:50:58.556Z,5.40
2023-03-23T22:53:25.353Z,5.23
2023-03-23T22:55:54.635Z,4.73
2023-03-23T22:58:21.314Z,5.10
2023-03-23T23:00:49.857Z,3.93
2023-03-23T23:03:17.128Z,3.70
2023-03-23T23:05:46.466Z,3.50
2023-03-23T23:08:14.660Z,3.40
2023-03-23T23:10:44.829Z,3.43
2023-03-23T23:13:12.722Z,3.30
2023-03-23T23:15:42.572Z,3.23
2023-03-23T23:18:09.140Z,3.07
2023-03-23T23:20:36.340Z,3.30
2023-03-23T23:23:03.612Z,3.57
2023-03-23T23:25:30.472Z,3.13
2023-03-23T23:27:58.345Z,2.90
2023-03-23T23:30:25.622Z,3.20
2023-03-23T23:32:52.628Z,3.03
2023-03-23T23:35:20.746Z,3.60
2023-03-23T23:37:47.759Z,3.50
2023-03-23T23:40:17.745Z,3.07
2023-03-23T23:42:46.081Z,3.67
2023-03-23T23:45:12.574Z,3.83
2023-03-23T23:47:39.248Z,3.40
2023-03-23T23:50:07.558Z,3.63
2023-03-23T23:52:34.787Z,3.20
2023-03-23T23:55:01.756Z,3.40
2023-03-23T23:57:28.214Z,3.40
2023-03-23T23:59:54.636Z,3.60
